Time;durP1;ratioP1;P1;durP2;ratioP2;P2;SDS_P1;SDS_P2;PMS_P1;PMS_P2;Temp;Humidity;BMP_temperature;BMP_pressure;BME280_temperature;BME280_humidity;BME280_pressure;Samples;Min_cycle;Max_cycle;Signal;HPM_P1;HPM_P2
2021/07/18 00:00:40;;;;;;;28.65;17.70;;;;;;;18.98;89.86;96394.88;5113263;28;20402;-75
2021/07/18 00:03:06;;;;;;;29.95;18.23;;;;;;;18.92;90.39;96403.88;5112959;28;20054;-74
2021/07/18 00:05:33;;;;;;;25.45;17.02;;;;;;;18.91;90.33;96397.56;5110109;28;20039;-75
2021/07/18 00:08:04;;;;;;;28.23;17.85;;;;;;;18.87;90.85;96402.22;5113327;28;20069;-74
2021/07/18 00:10:30;;;;;;;30.15;18.85;;;;;;;18.91;90.94;96394.78;5113167;28;20046;-74
2021/07/18 00:12:57;;;;;;;28.60;18.60;;;;;;;18.87;90.85;96393.94;5113191;28;20043;-74
2021/07/18 00:15:24;;;;;;;31.92;19.48;;;;;;;18.89;90.89;96391.59;5112796;28;20051;-75
2021/07/18 00:17:51;;;;;;;32.78;18.45;;;;;;;18.90;90.73;96392.41;5113075;28;20043;-75
2021/07/18 00:20:17;;;;;;;31.52;17.88;;;;;;;18.86;91.03;96383.28;5112659;28;20047;-74
2021/07/18 00:22:44;;;;;;;37.30;19.35;;;;;;;18.82;90.97;96385.19;5113068;28;20046;-75
2021/07/18 00:25:12;;;;;;;32.58;17.98;;;;;;;18.83;91.14;96392.28;5112450;28;20046;-74
2021/07/18 00:27:39;;;;;;;30.50;18.77;;;;;;;18.81;91.08;96389.91;5112899;28;20039;-75
2021/07/18 00:30:07;;;;;;;32.42;17.70;;;;;;;18.81;90.97;96387.16;5112460;28;20047;-74
2021/07/18 00:32:35;;;;;;;34.97;20.58;;;;;;;18.79;91.40;96389.47;5112067;28;20054;-75
2021/07/18 00:35:02;;;;;;;36.75;20.92;;;;;;;18.83;91.43;96382.03;5112213;28;20080;-72
2021/07/18 00:37:28;;;;;;;38.47;20.25;;;;;;;18.76;91.62;96384.69;5112689;28;20043;-74
2021/07/18 00:39:55;;;;;;;32.80;19.73;;;;;;;18.75;91.84;96381.16;5112695;28;20046;-74
2021/07/18 00:42:21;;;;;;;31.00;20.02;;;;;;;18.80;91.76;96376.50;5112203;28;20040;-74
2021/07/18 00:44:48;;;;;;;33.33;19.15;;;;;;;18.82;91.74;96369.41;5112257;28;20066;-74
2021/07/18 00:47:15;;;;;;;33.08;20.85;;;;;;;18.86;91.55;96375.00;5112096;28;20409;-74
2021/07/18 00:49:42;;;;;;;35.67;20.45;;;;;;;18.89;91.24;96369.50;5112433;28;20050;-74
2021/07/18 00:52:09;;;;;;;35.83;21.13;;;;;;;18.89;91.29;96375.03;5111959;28;20043;-74
2021/07/18 00:54:36;;;;;;;34.53;20.30;;;;;;;18.93;91.11;96369.56;5112337;28;20126;-74
2021/07/18 00:57:03;;;;;;;31.67;19.80;;;;;;;18.95;90.79;96372.75;5111951;28;20421;-73
2021/07/18 00:59:29;;;;;;;36.10;20.25;;;;;;;18.99;90.86;96374.41;5112355;28;20043;-74
2021/07/18 01:01:56;;;;;;;34.10;19.90;;;;;;;19.03;90.51;96371.69;5112368;28;20043;-75
2021/07/18 01:04:23;;;;;;;39.85;20.70;;;;;;;19.07;90.19;96374.53;5111471;28;20044;-74
2021/07/18 01:06:51;;;;;;;34.83;20.30;;;;;;;19.07;90.58;96377.28;5112363;28;20043;-74
2021/07/18 01:09:17;;;;;;;28.38;19.17;;;;;;;19.10;90.21;96376.50;5111699;28;20058;-75
2021/07/18 01:11:44;;;;;;;31.30;19.77;;;;;;;19.10;90.27;96374.56;5112269;28;20383;-75
2021/07/18 01:14:10;;;;;;;31.45;18.65;;;;;;;19.12;90.11;96376.97;5111470;28;20040;-74
2021/07/18 01:16:37;;;;;;;31.23;19.35;;;;;;;19.12;89.99;96385.25;5111939;28;20494;-75
2021/07/18 01:19:04;;;;;;;37.25;18.58;;;;;;;19.07;90.11;96386.34;5111549;28;20039;-74
2021/07/18 01:21:31;;;;;;;34.40;18.92;;;;;;;19.01;90.24;96385.88;5111977;28;20040;-74
2021/07/18 01:23:59;;;;;;;38.17;19.60;;;;;;;18.98;90.24;96378.34;5112052;28;20044;-76
2021/07/18 01:26:26;;;;;;;34.42;19.48;;;;;;;18.95;90.58;96381.03;5110967;28;20043;-76
2021/07/18 01:28:52;;;;;;;36.35;19.95;;;;;;;18.92;90.39;96379.03;5111808;28;20054;-76
2021/07/18 01:31:19;;;;;;;37.97;20.88;;;;;;;18.89;90.75;96374.25;5111318;28;20051;-75
2021/07/18 01:33:45;;;;;;;43.22;21.50;;;;;;;18.82;90.76;96374.94;5111735;28;20039;-76
2021/07/18 01:36:11;;;;;;;37.20;21.33;;;;;;;18.78;91.36;96374.06;5111025;28;20046;-75
2021/07/18 01:38:38;;;;;;;43.05;21.98;;;;;;;18.79;91.37;96375.66;5111629;28;20043;-76
2021/07/18 01:41:06;;;;;;;32.10;19.38;;;;;;;18.79;91.37;96370.16;5111180;28;20055;-75
2021/07/18 01:43:32;;;;;;;34.97;19.50;;;;;;;18.71;91.20;96374.78;5110757;28;20042;-75
2021/07/18 01:45:59;;;;;;;34.15;20.05;;;;;;;18.62;91.62;96365.91;5111614;28;20043;-75
2021/07/18 01:48:26;;;;;;;36.13;20.15;;;;;;;18.60;91.72;96365.50;5111128;28;20398;-75
2021/07/18 01:50:52;;;;;;;34.33;19.67;;;;;;;18.56;92.37;96372.13;5111420;28;20055;-76
2021/07/18 01:53:19;;;;;;;38.08;20.08;;;;;;;18.57;92.21;96363.47;5110995;28;20062;-75
2021/07/18 01:55:45;;;;;;;40.58;20.40;;;;;;;18.58;92.13;96364.28;5111445;28;20070;-75
2021/07/18 01:58:13;;;;;;;46.38;21.33;;;;;;;18.55;92.11;96354.78;5110956;28;20512;-75
2021/07/18 02:00:39;;;;;;;38.15;19.35;;;;;;;18.56;92.35;96361.09;5111541;28;20508;-75
2021/07/18 02:03:06;;;;;;;35.13;19.23;;;;;;;18.52;92.27;96356.31;5110892;28;20054;-75
2021/07/18 02:05:33;;;;;;;34.47;18.35;;;;;;;18.47;92.18;96367.66;5111158;28;20054;-75
2021/07/18 02:07:59;;;;;;;31.48;16.85;;;;;;;18.45;92.26;96361.72;5111316;28;20043;-75
2021/07/18 02:10:26;;;;;;;27.73;15.95;;;;;;;18.41;92.00;96358.09;5110956;28;20043;-75
2021/07/18 02:12:52;;;;;;;28.73;14.73;;;;;;;18.30;91.85;96354.38;5111148;28;20080;-75
2021/07/18 02:15:22;;;;;;;27.90;16.30;;;;;;;18.26;92.02;96353.50;5110730;28;20049;-75
2021/07/18 02:17:49;;;;;;;31.70;15.63;;;;;;;18.25;92.41;96357.44;5111107;28;20047;-75
2021/07/18 02:20:18;;;;;;;30.63;15.32;;;;;;;18.27;92.31;96352.38;5110738;28;20047;-76
2021/07/18 02:22:46;;;;;;;29.17;15.13;;;;;;;18.29;92.16;96352.78;5111055;28;20436;-76
2021/07/18 02:25:14;;;;;;;25.27;14.52;;;;;;;18.27;91.85;96357.88;5110592;28;20139;-75
2021/07/18 02:27:41;;;;;;;24.88;14.10;;;;;;;18.20;91.70;96354.97;5110917;28;20039;-75
2021/07/18 02:30:10;;;;;;;25.02;13.38;;;;;;;18.20;91.74;96343.97;5110785;28;20044;-74
2021/07/18 02:32:38;;;;;;;23.33;12.52;;;;;;;18.16;91.70;96348.59;5111062;28;20044;-75
2021/07/18 02:35:07;;;;;;;27.13;12.73;;;;;;;18.08;91.44;96344.16;5110567;28;20048;-74
2021/07/18 02:37:34;;;;;;;33.35;12.40;;;;;;;18.00;91.33;96360.53;5111142;28;20051;-75
2021/07/18 02:40:00;;;;;;;25.63;12.52;;;;;;;17.96;91.30;96353.38;5111105;28;20402;-75
2021/07/18 02:42:27;;;;;;;23.58;11.90;;;;;;;17.94;91.34;96353.72;5110805;28;20047;-75
2021/07/18 02:44:54;;;;;;;27.85;12.20;;;;;;;17.93;91.47;96351.34;5110940;28;20043;-75
2021/07/18 02:47:20;;;;;;;19.25;11.20;;;;;;;17.86;91.41;96342.97;5110687;28;20040;-75
2021/07/18 02:49:48;;;;;;;19.60;10.43;;;;;;;17.88;91.60;96351.66;5110866;28;20040;-75
2021/07/18 02:52:15;;;;;;;20.88;10.38;;;;;;;17.88;91.12;96349.69;5110494;28;20375;-75
2021/07/18 02:54:41;;;;;;;20.35;10.02;;;;;;;17.91;90.86;96342.66;5112700;28;20466;-75
2021/07/18 02:57:08;;;;;;;19.08;8.65;;;;;;;17.94;90.54;96342.72;5114296;28;20043;-74
2021/07/18 02:59:35;;;;;;;19.20;9.27;;;;;;;17.97;89.95;96336.47;5114689;28;20043;-75
2021/07/18 03:02:02;;;;;;;19.25;8.35;;;;;;;18.00;89.46;96346.75;5114672;28;20047;-75
2021/07/18 03:04:28;;;;;;;24.65;8.73;;;;;;;18.04;89.37;96341.31;5114205;28;20043;-75
2021/07/18 03:06:56;;;;;;;16.40;7.78;;;;;;;18.07;89.18;96339.81;5114459;28;20054;-75
2021/07/18 03:09:23;;;;;;;15.52;7.95;;;;;;;18.10;89.08;96344.56;5113875;28;20047;-74
2021/07/18 03:11:50;;;;;;;19.25;8.18;;;;;;;18.13;88.96;96338.34;5114385;28;20039;-75
2021/07/18 03:14:17;;;;;;;19.45;8.52;;;;;;;18.10;88.76;96344.56;5113915;28;20081;-75
2021/07/18 03:16:44;;;;;;;17.42;8.13;;;;;;;18.11;88.46;96346.16;5114273;28;20418;-75
2021/07/18 03:19:11;;;;;;;16.40;7.68;;;;;;;18.12;88.46;96354.06;5113690;28;20122;-74
2021/07/18 03:21:37;;;;;;;17.88;8.15;;;;;;;18.15;88.25;96344.25;5114444;28;20043;-74
2021/07/18 03:24:06;;;;;;;14.88;7.88;;;;;;;18.14;88.42;96350.94;5113720;28;20058;-74
2021/07/18 03:26:33;;;;;;;16.08;7.25;;;;;;;18.13;88.58;96347.38;5113971;28;20043;-75
2021/07/18 03:28:59;;;;;;;15.85;7.13;;;;;;;18.13;88.31;96349.34;5114018;28;20506;-75
2021/07/18 03:31:26;;;;;;;16.15;7.50;;;;;;;18.14;88.49;96350.94;5113627;28;20055;-75
2021/07/18 03:33:53;;;;;;;16.73;7.15;;;;;;;18.15;88.44;96347.00;5113955;28;20486;-75
2021/07/18 03:36:19;;;;;;;12.88;7.45;;;;;;;18.15;88.10;96347.00;5113291;28;20043;-75
2021/07/18 03:38:46;;;;;;;19.25;7.57;;;;;;;18.15;88.04;96352.53;5114105;28;20489;-75
2021/07/18 03:41:13;;;;;;;14.95;6.88;;;;;;;18.16;88.12;96348.59;5113509;28;20044;-74
2021/07/18 03:43:40;;;;;;;16.85;7.57;;;;;;;18.13;87.88;96350.16;5113714;28;20046;-74
2021/07/18 03:46:06;;;;;;;14.73;7.00;;;;;;;18.17;88.04;96355.72;5113278;28;20047;-74
2021/07/18 03:48:33;;;;;;;15.43;7.22;;;;;;;18.18;87.77;96358.13;5113818;28;20047;-75
2021/07/18 03:51:00;;;;;;;16.27;7.28;;;;;;;18.19;87.92;96353.41;5113980;28;20043;-74
2021/07/18 03:53:26;;;;;;;15.27;7.00;;;;;;;18.19;87.74;96356.16;5113126;28;20054;-75
2021/07/18 03:55:53;;;;;;;12.65;6.07;;;;;;;18.17;87.71;96356.53;5113522;28;20052;-75
2021/07/18 03:58:21;;;;;;;16.27;6.75;;;;;;;18.18;87.77;96357.31;5113043;28;20044;-75
2021/07/18 04:00:47;;;;;;;18.92;7.18;;;;;;;18.19;87.58;96364.41;5113364;28;20046;-75
2021/07/18 04:03:13;;;;;;;17.73;7.15;;;;;;;18.19;87.78;96359.69;5113192;28;20052;-74
2021/07/18 04:05:40;;;;;;;13.13;6.15;;;;;;;18.19;87.40;96364.41;5112429;28;20051;-75
2021/07/18 04:08:06;;;;;;;10.70;6.38;;;;;;;18.16;87.27;96354.13;5113087;28;20390;-74
2021/07/18 04:10:33;;;;;;;16.08;6.90;;;;;;;18.16;87.22;96371.44;5113403;28;20048;-75
2021/07/18 04:13:00;;;;;;;15.20;7.25;;;;;;;18.19;87.18;96367.19;5113178;28;20048;-75
2021/07/18 04:15:29;;;;;;;14.05;6.60;;;;;;;18.13;86.92;96365.88;5112738;28;20645;-75
2021/07/18 04:17:55;;;;;;;13.35;6.68;;;;;;;18.11;87.36;96376.47;5113175;28;20075;-75
2021/07/18 04:20:22;;;;;;;13.95;6.82;;;;;;;18.02;87.31;96376.72;5112788;28;20518;-75
2021/07/18 04:22:48;;;;;;;19.27;7.25;;;;;;;17.91;87.87;96379.28;5113009;28;20512;-75
2021/07/18 04:25:15;;;;;;;17.70;6.35;;;;;;;17.80;88.30;96375.53;5112265;28;20055;-75
2021/07/18 04:27:41;;;;;;;16.63;6.90;;;;;;;17.74;88.56;96382.47;5112812;28;20044;-75
2021/07/18 04:30:09;;;;;;;15.75;6.47;;;;;;;17.70;89.07;96387.09;5112588;28;20043;-75
2021/07/18 04:32:37;;;;;;;16.25;6.53;;;;;;;17.63;89.00;96386.94;5112872;28;20044;-75
2021/07/18 04:35:05;;;;;;;15.55;6.25;;;;;;;17.57;89.27;96386.44;5112294;28;20375;-75
2021/07/18 04:37:31;;;;;;;18.48;6.35;;;;;;;17.50;89.57;96393.75;5112952;28;20054;-75
2021/07/18 04:39:57;;;;;;;12.57;6.28;;;;;;;17.50;89.91;96393.75;5112816;28;20048;-75
2021/07/18 04:42:24;;;;;;;14.40;6.07;;;;;;;17.46;89.79;96397.22;5112380;28;20044;-75
2021/07/18 04:44:50;;;;;;;15.70;5.75;;;;;;;17.40;89.83;96395.13;5112556;28;20058;-75
2021/07/18 04:47:17;;;;;;;12.48;6.18;;;;;;;17.41;90.07;96393.97;5112092;28;20052;-75
2021/07/18 04:49:45;;;;;;;13.38;6.63;;;;;;;17.39;90.28;96399.84;5112759;28;20044;-75
2021/07/18 04:52:11;;;;;;;16.52;5.78;;;;;;;17.37;90.46;96401.34;5112197;28;20050;-75
2021/07/18 04:54:38;;;;;;;15.15;7.22;;;;;;;17.36;90.63;96397.78;5112395;28;20039;-75
2021/07/18 04:57:05;;;;;;;16.33;6.15;;;;;;;17.38;90.52;96409.25;5111977;28;20055;-74
2021/07/18 04:59:31;;;;;;;14.63;5.85;;;;;;;17.40;90.39;96406.94;5112404;28;20055;-75
2021/07/18 05:01:58;;;;;;;15.20;6.15;;;;;;;17.40;90.44;96406.13;5112397;28;20044;-75
2021/07/18 05:04:24;;;;;;;15.07;6.45;;;;;;;17.43;90.60;96411.69;5112015;28;20047;-75
2021/07/18 05:06:52;;;;;;;16.50;5.95;;;;;;;17.42;90.93;96412.88;5112496;28;20039;-75
2021/07/18 05:09:19;;;;;;;14.73;5.85;;;;;;;17.38;91.14;96414.75;5111936;28;20055;-75
2021/07/18 05:11:45;;;;;;;17.55;6.80;;;;;;;17.41;91.42;96413.22;5112131;28;20044;-75
2021/07/18 05:14:12;;;;;;;18.63;6.00;;;;;;;17.41;91.26;96413.22;5111589;28;20050;-75
2021/07/18 05:16:38;;;;;;;12.10;6.43;;;;;;;17.42;91.54;96426.63;5112020;28;20046;-75
2021/07/18 05:19:05;;;;;;;18.23;6.07;;;;;;;17.44;91.22;96413.31;5111693;28;20046;-75
2021/07/18 05:21:32;;;;;;;11.05;5.95;;;;;;;17.45;90.82;96420.41;5112047;28;20051;-75
2021/07/18 05:23:59;;;;;;;13.18;5.28;;;;;;;17.43;90.90;96428.22;5111921;28;20070;-76
2021/07/18 05:26:26;;;;;;;18.55;6.30;;;;;;;17.44;90.19;96424.31;5111161;28;20407;-75
2021/07/18 05:28:52;;;;;;;13.00;5.15;;;;;;;17.44;90.24;96427.09;5111853;28;20050;-75
2021/07/18 05:31:19;;;;;;;11.75;5.25;;;;;;;17.50;90.26;96432.31;5111347;28;20050;-75
2021/07/18 05:33:45;;;;;;;11.88;4.95;;;;;;;17.54;90.01;96428.47;5111664;28;20207;-75
2021/07/18 05:36:12;;;;;;;11.93;4.82;;;;;;;17.55;88.89;96434.78;5111160;28;20050;-75
2021/07/18 05:38:38;;;;;;;11.85;4.88;;;;;;;17.55;89.07;96430.06;5111741;28;20050;-75
2021/07/18 05:41:06;;;;;;;17.25;5.50;;;;;;;17.59;89.04;96421.84;5111121;28;20043;-74
2021/07/18 05:43:33;;;;;;;13.13;5.00;;;;;;;17.60;88.70;96420.72;5111873;28;20047;-75
2021/07/18 05:45:59;;;;;;;9.55;4.55;;;;;;;17.58;88.23;96428.53;5111618;28;20040;-75
2021/07/18 05:48:26;;;;;;;17.88;5.78;;;;;;;17.61;87.62;96427.81;5111256;28;20092;-75
2021/07/18 05:50:53;;;;;;;11.98;4.72;;;;;;;17.64;87.62;96422.34;5111720;28;20059;-75
2021/07/18 05:53:19;;;;;;;9.80;4.75;;;;;;;17.65;87.58;96423.97;5110955;28;20044;-74
2021/07/18 05:55:45;;;;;;;9.45;4.47;;;;;;;17.64;87.88;96432.59;5111510;28;20047;-75
2021/07/18 05:58:13;;;;;;;14.02;4.90;;;;;;;17.66;87.76;96430.28;5110866;28;20043;-75
2021/07/18 06:00:40;;;;;;;14.05;4.95;;;;;;;17.68;87.57;96439.75;5111613;28;20067;-75
2021/07/18 06:03:07;;;;;;;8.73;4.60;;;;;;;17.70;87.84;96431.16;5111023;28;20137;-74
2021/07/18 06:05:34;;;;;;;13.32;5.75;;;;;;;17.73;87.62;96441.47;5111202;28;20039;-75
2021/07/18 06:08:02;;;;;;;10.30;5.40;;;;;;;17.73;87.83;96435.97;5111279;28;20067;-75
2021/07/18 06:10:29;;;;;;;8.93;4.95;;;;;;;17.76;87.76;96435.25;5111175;28;20048;-75
2021/07/18 06:12:55;;;;;;;12.15;4.93;;;;;;;17.75;87.18;96430.91;5111228;28;20051;-75
2021/07/18 06:15:23;;;;;;;14.07;4.95;;;;;;;17.76;87.53;96435.25;5110706;28;22453;-74
2021/07/18 06:17:50;;;;;;;11.98;5.05;;;;;;;17.79;87.33;96442.75;5111354;28;20043;-75
2021/07/18 06:20:16;;;;;;;13.27;5.47;;;;;;;17.78;87.67;96446.69;5110871;28;20043;-75
2021/07/18 06:22:43;;;;;;;15.35;5.57;;;;;;;17.85;87.03;96446.81;5111210;28;20047;-75
2021/07/18 06:25:10;;;;;;;12.27;5.13;;;;;;;17.85;87.29;96449.56;5110639;28;20054;-74
2021/07/18 06:27:39;;;;;;;13.23;4.88;;;;;;;17.90;87.52;96451.25;5111334;28;20383;-75
2021/07/18 06:30:07;;;;;;;10.93;5.25;;;;;;;17.92;87.49;96446.97;5113609;28;20134;-74
2021/07/18 06:32:35;;;;;;;12.85;5.28;;;;;;;17.96;87.42;96453.38;5115325;28;20616;-75
2021/07/18 06:35:02;;;;;;;13.38;4.75;;;;;;;17.98;87.55;96453.78;5113116;28;20051;-75
2021/07/18 06:37:28;;;;;;;11.85;5.20;;;;;;;18.04;87.51;96453.50;5114955;28;20039;-74
2021/07/18 06:39:55;;;;;;;11.88;5.10;;;;;;;18.07;87.65;96455.53;5115010;28;20409;-75
2021/07/18 06:42:21;;;;;;;12.38;5.60;;;;;;;18.11;87.73;96461.88;5114710;28;20051;-75
2021/07/18 06:44:48;;;;;;;17.38;5.43;;;;;;;18.16;88.03;96454.13;5114966;28;20078;-75
2021/07/18 06:47:14;;;;;;;14.25;5.07;;;;;;;18.22;87.73;96457.41;5114669;28;20040;-74
2021/07/18 06:49:42;;;;;;;17.88;5.72;;;;;;;18.25;87.61;96462.16;5114734;28;20509;-75
2021/07/18 06:52:08;;;;;;;11.77;5.50;;;;;;;18.31;87.54;96463.47;5114611;28;20039;-74
2021/07/18 06:54:35;;;;;;;11.55;5.00;;;;;;;18.39;86.98;96458.91;5114763;28;20085;-74
2021/07/18 06:57:01;;;;;;;11.68;6.22;;;;;;;18.40;86.72;96452.22;5114732;28;20082;-75
2021/07/18 06:59:28;;;;;;;13.73;5.75;;;;;;;18.46;86.65;96461.78;5114508;28;20032;-74
2021/07/18 07:01:54;;;;;;;15.90;5.72;;;;;;;18.57;86.00;96470.22;5114721;28;20409;-75
2021/07/18 07:04:21;;;;;;;15.98;5.60;;;;;;;18.65;85.94;96472.75;5111906;28;20044;-74
2021/07/18 07:06:49;;;;;;;11.57;5.13;;;;;;;18.70;85.86;96477.22;5114570;28;20036;-74
2021/07/18 07:09:15;;;;;;;12.85;6.10;;;;;;;18.70;85.04;96477.22;5114110;28;20047;-74
2021/07/18 07:11:42;;;;;;;16.00;6.32;;;;;;;18.67;83.54;96478.69;5114481;28;20050;-74
2021/07/18 07:14:09;;;;;;;13.73;5.95;;;;;;;18.65;83.71;96485.75;5114249;28;20043;-74
2021/07/18 07:16:36;;;;;;;12.18;6.15;;;;;;;18.67;83.49;96478.69;5114325;28;20118;-74
2021/07/18 07:19:02;;;;;;;14.05;6.63;;;;;;;18.74;83.98;96484.38;5113780;28;20043;-73
2021/07/18 07:21:29;;;;;;;13.07;6.07;;;;;;;18.81;84.38;96482.91;5114502;28;20047;-74
2021/07/18 07:23:57;;;;;;;14.82;6.43;;;;;;;18.86;84.97;96482.59;5114308;28;20043;-74
2021/07/18 07:26:23;;;;;;;13.65;6.10;;;;;;;18.92;82.25;96481.13;5113446;28;20046;-74
2021/07/18 07:28:50;;;;;;;12.05;5.60;;;;;;;18.99;81.83;96484.78;5114166;28;20066;-75
2021/07/18 07:31:16;;;;;;;13.02;6.68;;;;;;;19.02;82.46;96484.06;5113509;28;20043;-74
2021/07/18 07:33:43;;;;;;;13.60;6.40;;;;;;;19.06;83.21;96486.88;5114134;28;20043;-74
2021/07/18 07:36:09;;;;;;;13.10;6.95;;;;;;;19.10;82.38;96484.16;5111454;28;20525;-73
2021/07/18 07:38:36;;;;;;;17.30;7.72;;;;;;;19.11;82.55;96489.34;5114123;28;20051;-74
2021/07/18 07:41:04;;;;;;;14.00;7.45;;;;;;;19.14;83.62;96485.00;5112012;28;20051;-73
2021/07/18 07:43:30;;;;;;;17.70;7.88;;;;;;;19.17;83.95;96490.59;5113868;28;20545;-74
2021/07/18 07:45:57;;;;;;;17.67;7.68;;;;;;;19.27;83.67;96489.19;5113774;28;20046;-74
2021/07/18 07:48:23;;;;;;;18.02;7.55;;;;;;;19.29;83.55;96487.63;5113371;28;20047;-74
2021/07/18 07:50:51;;;;;;;16.60;7.13;;;;;;;19.37;81.79;96488.53;5113978;28;20039;-74
2021/07/18 07:53:18;;;;;;;15.82;7.93;;;;;;;19.37;81.91;96494.06;5113124;28;20055;-74
2021/07/18 07:55:45;;;;;;;16.30;7.93;;;;;;;19.38;82.29;96487.38;5113585;28;20043;-74
2021/07/18 07:58:14;;;;;;;13.40;7.55;;;;;;;19.41;82.03;96496.88;5113091;28;20055;-74
2021/07/18 08:00:40;;;;;;;13.90;7.82;;;;;;;19.44;81.47;96493.38;5113598;28;20035;-75
2021/07/18 08:03:07;;;;;;;14.75;7.65;;;;;;;19.47;81.31;96493.44;5112926;28;20050;-74
2021/07/18 08:05:33;;;;;;;13.75;7.68;;;;;;;19.47;82.08;96493.44;5113155;28;20440;-74
2021/07/18 08:08:00;;;;;;;19.13;8.52;;;;;;;19.46;82.48;96502.88;5113243;28;20048;-74
2021/07/18 08:10:27;;;;;;;17.67;8.82;;;;;;;19.48;81.27;96500.53;5113065;28;20486;-74
2021/07/18 08:12:53;;;;;;;18.13;7.93;;;;;;;19.40;79.95;96514.59;5113335;28;20047;-74
2021/07/18 08:15:22;;;;;;;20.25;8.63;;;;;;;19.40;80.57;96512.63;5112781;28;20043;-74
2021/07/18 08:17:49;;;;;;;20.17;8.95;;;;;;;19.44;80.93;96521.78;5113197;28;20047;-74
2021/07/18 08:20:17;;;;;;;16.00;8.15;;;;;;;19.44;81.18;96518.22;5112782;28;20051;-74
2021/07/18 08:22:46;;;;;;;16.67;9.18;;;;;;;19.40;80.22;96520.91;5113005;28;20513;-74
2021/07/18 08:25:14;;;;;;;16.65;8.80;;;;;;;19.40;80.64;96515.41;5112168;28;20069;-74
2021/07/18 08:27:41;;;;;;;16.60;9.32;;;;;;;19.44;81.06;96519.03;5112993;28;20043;-74
2021/07/18 08:30:09;;;;;;;16.02;9.48;;;;;;;19.46;81.87;96519.44;5112577;28;20047;-73
2021/07/18 08:32:37;;;;;;;17.10;8.10;;;;;;;19.53;82.26;96524.28;5112901;28;20048;-74
2021/07/18 08:35:04;;;;;;;16.80;10.10;;;;;;;19.60;82.69;96518.09;5112414;28;20051;-73
2021/07/18 08:37:31;;;;;;;16.70;9.90;;;;;;;19.62;82.74;96524.03;5112611;28;20043;-74
2021/07/18 08:39:57;;;;;;;17.60;9.80;;;;;;;19.64;81.59;96530.00;5112553;28;20044;-74
2021/07/18 08:42:24;;;;;;;18.33;10.05;;;;;;;19.62;81.50;96521.28;5112475;28;20048;-74
2021/07/18 08:44:50;;;;;;;18.40;9.85;;;;;;;19.63;81.12;96522.84;5112634;28;20413;-74
2021/07/18 08:47:17;;;;;;;16.15;9.93;;;;;;;19.66;81.74;96511.06;5112281;28;20047;-74
2021/07/18 08:49:46;;;;;;;17.63;10.63;;;;;;;19.72;81.74;96521.41;5112629;28;20112;-74
2021/07/18 08:52:12;;;;;;;14.05;9.50;;;;;;;19.81;79.57;96526.69;5111697;28;20044;-74
2021/07/18 08:54:39;;;;;;;21.13;11.15;;;;;;;19.85;80.43;96527.53;5112178;28;20049;-74
2021/07/18 08:57:06;;;;;;;20.08;11.35;;;;;;;19.84;80.45;96519.59;5112147;28;20578;-73
2021/07/18 08:59:34;;;;;;;22.77;10.38;;;;;;;19.91;80.91;96523.28;5112318;28;20050;-74
2021/07/18 09:02:00;;;;;;;20.00;10.55;;;;;;;19.96;80.64;96520.19;5112259;28;20044;-74
2021/07/18 09:04:27;;;;;;;21.58;11.07;;;;;;;20.01;80.15;96522.63;5111753;28;20039;-74
2021/07/18 09:06:55;;;;;;;19.38;11.00;;;;;;;20.07;80.86;96529.41;5112066;28;20406;-74
2021/07/18 09:09:23;;;;;;;18.80;10.32;;;;;;;20.15;78.84;96527.53;5111879;28;20525;-74
2021/07/18 09:11:56;;;;;;;18.95;11.60;;;;;;;20.15;79.20;96527.53;5112137;28;20049;-74
2021/07/18 09:14:23;;;;;;;20.45;11.15;;;;;;;20.13;79.31;96529.06;5111747;28;20104;-73
2021/07/18 09:16:52;;;;;;;23.27;12.93;;;;;;;20.17;79.55;96527.16;5112022;28;20052;-74
2021/07/18 09:19:24;;;;;;;21.98;11.68;;;;;;;20.21;79.87;96525.25;5111428;28;20047;-74
2021/07/18 09:22:07;;;;;;;19.90;13.38;;;;;;;20.24;80.44;96535.53;5112214;28;20482;-73
2021/07/18 09:24:36;;;;;;;20.30;11.60;;;;;;;20.26;80.84;96527.66;5111781;28;20035;-73
2021/07/18 09:27:11;;;;;;;20.20;12.50;;;;;;;20.30;81.15;96529.28;5111440;28;20100;-71
2021/07/18 09:29:40;;;;;;;22.63;12.18;;;;;;;20.36;79.44;96527.00;5111868;28;20054;-73
2021/07/18 09:32:10;;;;;;;23.52;13.15;;;;;;;20.37;78.71;96534.13;5111011;28;20154;-72
2021/07/18 09:34:38;;;;;;;22.42;13.95;;;;;;;20.26;78.24;96527.66;5111544;28;20044;-73
2021/07/18 09:37:12;;;;;;;21.17;13.85;;;;;;;20.26;79.23;96533.19;5111071;28;20043;-73
2021/07/18 09:39:39;;;;;;;23.27;14.25;;;;;;;20.27;79.45;96534.78;5111673;28;20051;-74
2021/07/18 09:42:07;;;;;;;23.10;14.15;;;;;;;20.25;79.55;96531.59;5111372;28;20051;-74
2021/07/18 09:44:46;;;;;;;24.75;13.95;;;;;;;20.24;78.93;96535.53;5111515;28;20035;-74
2021/07/18 09:47:13;;;;;;;24.83;15.70;;;;;;;20.21;79.20;96539.06;5111246;28;20046;-73
2021/07/18 09:49:40;;;;;;;22.58;13.70;;;;;;;20.22;78.38;96537.88;5111466;28;20041;-73
2021/07/18 09:52:20;;;;;;;23.50;14.73;;;;;;;20.25;78.65;96542.66;5111287;28;20059;-73
2021/07/18 09:54:48;;;;;;;28.15;15.70;;;;;;;20.26;79.25;96535.97;5111347;28;20044;-73
2021/07/18 09:57:29;;;;;;;26.00;15.40;;;;;;;20.30;78.48;96536.78;5111049;28;20055;-72
2021/07/18 09:59:56;;;;;;;23.23;15.02;;;;;;;20.30;78.47;96540.34;5111228;28;20509;-72
2021/07/18 10:02:24;;;;;;;23.23;15.40;;;;;;;20.31;77.00;96541.97;5110808;28;20054;-72
2021/07/18 10:04:51;;;;;;;26.90;14.30;;;;;;;20.33;78.44;96539.59;5110349;28;20104;-72
2021/07/18 10:07:22;;;;;;;23.33;14.75;;;;;;;20.31;78.46;96541.16;5110894;28;20056;-74
2021/07/18 10:09:49;;;;;;;22.85;14.73;;;;;;;20.32;78.66;96537.22;5111261;28;20498;-73
2021/07/18 10:12:15;;;;;;;23.17;15.35;;;;;;;20.36;79.03;96543.59;5111057;28;20048;-72
2021/07/18 10:14:42;;;;;;;26.27;15.27;;;;;;;20.35;78.19;96541.97;5111083;28;20040;-73
2021/07/18 10:17:10;;;;;;;24.30;15.02;;;;;;;20.37;77.82;96539.66;5110720;28;20051;-72
2021/07/18 10:19:36;;;;;;;26.83;15.35;;;;;;;20.40;77.30;96529.78;5111247;28;20047;-72
2021/07/18 10:22:04;;;;;;;27.10;16.08;;;;;;;20.46;77.56;96537.41;5111102;28;20044;-71
2021/07/18 10:24:34;;;;;;;26.48;15.63;;;;;;;20.50;77.25;96532.69;5111160;28;20047;-73
2021/07/18 10:27:02;;;;;;;26.88;15.98;;;;;;;20.53;78.04;96531.97;5110961;28;20111;-73
2021/07/18 10:29:29;;;;;;;28.70;16.25;;;;;;;20.57;76.25;96532.81;5110643;28;20104;-72
2021/07/18 10:31:58;;;;;;;24.73;17.15;;;;;;;20.57;76.83;96527.28;5111006;28;20048;-73
2021/07/18 10:34:28;;;;;;;29.88;15.60;;;;;;;20.71;77.29;96525.81;5110331;28;20047;-73
2021/07/18 10:36:55;;;;;;;23.80;15.55;;;;;;;20.80;78.37;96532.63;5111204;28;20476;-72
2021/07/18 10:39:29;;;;;;;26.88;15.35;;;;;;;20.90;76.51;96528.38;5110613;28;20056;-72
2021/07/18 10:41:58;;;;;;;24.73;15.45;;;;;;;20.91;75.99;96524.44;5110905;28;20050;-72
2021/07/18 10:44:25;;;;;;;27.95;14.68;;;;;;;20.88;76.19;96535.47;5110401;28;20406;-72
2021/07/18 10:46:54;;;;;;;25.63;15.57;;;;;;;20.85;76.12;96531.50;5111022;28;20040;-73
2021/07/18 10:49:49;;;;;;;27.23;16.65;;;;;;;20.84;76.49;96529.91;5110457;28;20573;-73
2021/07/18 10:52:16;;;;;;;28.65;15.93;;;;;;;20.91;76.55;96527.19;5110632;28;20054;-72
2021/07/18 10:54:43;;;;;;;28.35;16.73;;;;;;;21.06;78.45;96525.38;5092705;28;20075;-73
2021/07/18 10:57:26;;;;;;;22.20;14.35;;;;;;;21.33;78.45;96526.00;5110326;28;20658;-72
2021/07/18 10:59:53;;;;;;;24.48;15.75;;;;;;;21.61;77.41;96517.09;5111186;28;20074;-73
2021/07/18 11:02:22;;;;;;;23.45;15.00;;;;;;;21.69;76.33;96524.28;5110565;28;20051;-72
2021/07/18 11:04:50;;;;;;;22.88;15.48;;;;;;;21.76;74.28;96523.53;5110796;28;20051;-73
2021/07/18 11:07:40;;;;;;;26.98;16.48;;;;;;;21.79;75.00;96517.22;5110562;28;20043;-73
2021/07/18 11:10:19;;;;;;;22.02;14.07;;;;;;;21.86;74.33;96522.81;5110209;28;20100;-72
2021/07/18 11:12:48;;;;;;;28.35;16.42;;;;;;;21.90;75.53;96520.84;5110922;28;20062;-73
2021/07/18 11:15:39;;;;;;;23.83;15.13;;;;;;;21.96;73.62;96527.63;5111259;28;20040;-73
2021/07/18 11:18:11;;;;;;;21.80;14.70;;;;;;;22.06;73.48;96523.31;5093387;28;20051;-71
2021/07/18 11:20:44;;;;;;;22.00;14.53;;;;;;;22.12;72.79;96514.25;5114372;28;20039;-73
2021/07/18 11:23:11;;;;;;;24.40;15.98;;;;;;;22.27;73.30;96519.88;5113826;28;20127;-73